createdAt,value
2022-11-19T00:00:50.817Z,18.13
2022-11-19T00:03:19.023Z,15.93
2022-11-19T00:05:48.102Z,17.30
2022-11-19T00:08:17.784Z,16.13
2022-11-19T00:10:45.679Z,14.32
2022-11-19T00:13:13.573Z,14.40
2022-11-19T00:15:40.531Z,12.25
2022-11-19T00:18:07.432Z,20.45
2022-11-19T00:20:35.259Z,26.73
2022-11-19T00:23:01.863Z,30.25
2022-11-19T00:25:30.623Z,30.98
2022-11-19T00:27:57.794Z,27.80
2022-11-19T00:30:47.042Z,30.20
2022-11-19T00:33:11.087Z,23.15
2022-11-19T00:35:37.711Z,23.25
2022-11-19T00:38:04.378Z,23.40
2022-11-19T00:40:30.819Z,22.80
2022-11-19T00:43:32.795Z,22.73
2022-11-19T00:45:59.267Z,19.93
2022-11-19T00:48:25.741Z,17.97
2022-11-19T00:50:52.194Z,14.95
2022-11-19T00:53:18.654Z,13.82
2022-11-19T00:55:45.164Z,14.00
2022-11-19T00:58:11.646Z,15.40
2022-11-19T01:00:38.942Z,16.35
2022-11-19T01:03:05.762Z,14.70
2022-11-19T01:05:32.270Z,15.68
2022-11-19T01:07:58.833Z,15.03
2022-11-19T01:10:25.319Z,15.57
2022-11-19T01:13:10.408Z,12.60
2022-11-19T01:15:36.853Z,12.30
2022-11-19T01:18:03.335Z,15.43
2022-11-19T01:20:29.929Z,12.60
2022-11-19T01:22:56.567Z,12.32
2022-11-19T01:25:23.004Z,12.47
2022-11-19T01:27:49.442Z,12.20
2022-11-19T01:30:15.935Z,11.93
2022-11-19T01:32:42.389Z,11.98
2022-11-19T01:35:09.220Z,11.27
2022-11-19T01:37:35.695Z,12.13
2022-11-19T01:40:02.144Z,11.93
2022-11-19T01:42:51.548Z,11.77
2022-11-19T01:45:38.222Z,10.40
2022-11-19T01:48:09.928Z,10.85
2022-11-19T01:50:43.559Z,11.02
2022-11-19T01:53:11.162Z,11.63
2022-11-19T01:55:38.753Z,9.43
2022-11-19T01:58:06.444Z,9.50
2022-11-19T02:00:33.232Z,9.65
2022-11-19T02:02:59.896Z,8.85
2022-11-19T02:05:26.983Z,8.38
2022-11-19T02:07:55.963Z,7.95
2022-11-19T02:10:48.738Z,8.57
2022-11-19T02:13:43.874Z,9.50
2022-11-19T02:16:25.876Z,8.75
2022-11-19T02:19:33.594Z,9.15
2022-11-19T02:22:03.044Z,8.05
2022-11-19T02:24:35.560Z,9.60
2022-11-19T02:27:40.243Z,10.70
2022-11-19T02:30:11.920Z,8.88
2022-11-19T02:32:58.907Z,9.30
2022-11-19T02:35:30.700Z,7.20
2022-11-19T02:38:13.621Z,7.95
2022-11-19T02:40:43.941Z,6.93
2022-11-19T02:43:17.082Z,7.53
2022-11-19T02:45:47.182Z,8.60
2022-11-19T02:48:28.046Z,7.43
2022-11-19T02:51:00.879Z,7.43
2022-11-19T02:53:27.592Z,7.00
2022-11-19T02:56:12.331Z,6.88
2022-11-19T02:59:05.966Z,6.47
2022-11-19T03:01:52.595Z,6.38
2022-11-19T03:04:32.455Z,6.10
2022-11-19T03:07:25.464Z,6.50
2022-11-19T03:09:57.935Z,6.53
2022-11-19T03:12:56.402Z,6.63
2022-11-19T03:15:55.789Z,6.35
2022-11-19T03:18:49.608Z,5.80
2022-11-19T03:21:26.093Z,6.00
2022-11-19T03:24:01.626Z,8.73
2022-11-19T03:26:37.006Z,7.93
2022-11-19T03:29:07.345Z,6.30
2022-11-19T03:31:34.598Z,6.00
2022-11-19T03:34:04.487Z,7.07
2022-11-19T03:36:36.270Z,8.47
2022-11-19T03:39:05.901Z,5.88
2022-11-19T03:41:34.331Z,7.00
2022-11-19T03:44:06.159Z,7.83
2022-11-19T03:46:35.077Z,8.97
2022-11-19T03:49:02.393Z,7.53
2022-11-19T03:51:35.942Z,6.77
2022-11-19T03:54:02.875Z,7.23
2022-11-19T03:56:29.526Z,6.63
2022-11-19T03:58:58.849Z,8.50
2022-11-19T04:01:25.442Z,9.03
2022-11-19T04:04:10.478Z,8.40
2022-11-19T04:06:36.909Z,6.93
2022-11-19T04:09:03.728Z,8.37
2022-11-19T04:11:30.156Z,8.20
2022-11-19T04:13:56.604Z,5.37
2022-11-19T04:16:23.073Z,7.57
2022-11-19T04:18:49.519Z,6.13
2022-11-19T04:21:15.964Z,7.40
2022-11-19T04:23:42.388Z,6.13
2022-11-19T04:26:08.868Z,6.23
2022-11-19T04:28:35.292Z,7.13
2022-11-19T04:31:01.790Z,4.90
2022-11-19T04:33:28.211Z,6.40
2022-11-19T04:35:54.672Z,5.13
2022-11-19T04:38:21.096Z,5.25
2022-11-19T04:40:47.625Z,6.40
2022-11-19T04:43:14.061Z,5.00
2022-11-19T04:45:40.541Z,5.40
2022-11-19T04:48:07.132Z,4.93
2022-11-19T04:50:33.594Z,6.00
2022-11-19T04:53:00.132Z,4.80
2022-11-19T04:55:26.643Z,5.37
2022-11-19T04:57:53.428Z,5.32
2022-11-19T05:00:20.142Z,5.50
2022-11-19T05:02:46.608Z,7.10
2022-11-19T05:05:13.124Z,6.03
2022-11-19T05:07:39.625Z,5.75
2022-11-19T05:34:14.103Z,8.57
2022-11-19T05:36:50.373Z,9.25
2022-11-19T05:48:37.424Z,9.85
2022-11-19T05:57:19.651Z,11.68
2022-11-19T06:08:42.379Z,12.05
2022-11-19T06:11:50.765Z,12.70
2022-11-19T06:38:07.579Z,12.80
2022-11-19T06:43:52.883Z,14.48
2022-11-19T06:46:36.678Z,10.48
2022-11-19T07:05:31.113Z,10.83
2022-11-19T07:08:30.824Z,9.63
2022-11-19T07:18:03.327Z,10.75
2022-11-19T07:37:33.027Z,7.90
2022-11-19T07:57:44.515Z,11.93
2022-11-19T08:07:47.962Z,11.77
2022-11-19T08:10:14.665Z,11.83
2022-11-19T08:12:41.169Z,9.73
2022-11-19T08:15:08.526Z,9.53
2022-11-19T08:17:53.631Z,11.90
2022-11-19T08:20:20.054Z,12.87
2022-11-19T08:22:47.002Z,10.47
2022-11-19T08:25:13.494Z,12.60
2022-11-19T08:27:39.926Z,11.27
2022-11-19T08:30:06.956Z,14.37
2022-11-19T08:32:36.153Z,15.67
2022-11-19T08:35:02.628Z,10.93
2022-11-19T08:37:29.052Z,15.20
2022-11-19T08:39:55.560Z,9.17
2022-11-19T08:42:40.561Z,13.13
2022-11-19T08:45:07.680Z,13.43
2022-11-19T08:47:34.932Z,11.70
2022-11-19T08:50:01.408Z,10.03
2022-11-19T08:52:27.879Z,8.23
2022-11-19T08:54:54.354Z,12.33
2022-11-19T08:57:20.791Z,8.37
2022-11-19T08:59:47.321Z,9.60
2022-11-19T09:02:13.797Z,9.07
2022-11-19T09:04:41.491Z,9.27
2022-11-19T09:07:07.943Z,8.43
2022-11-19T09:09:34.478Z,8.83
2022-11-19T09:12:01.047Z,10.63
2022-11-19T09:14:27.533Z,7.63
2022-11-19T09:16:54.007Z,8.10
2022-11-19T09:19:20.496Z,8.17
2022-11-19T09:21:46.960Z,8.97
2022-11-19T09:24:13.419Z,9.47
2022-11-19T09:26:39.867Z,9.50
2022-11-19T09:29:06.364Z,7.80
2022-11-19T09:31:32.896Z,8.33
2022-11-19T09:33:59.485Z,7.63
2022-11-19T09:36:25.941Z,8.90
2022-11-19T09:38:56.861Z,8.60
2022-11-19T09:41:44.035Z,8.77
2022-11-19T09:44:28.987Z,6.83
2022-11-19T09:47:16.921Z,11.00
2022-11-19T09:49:51.415Z,9.80
2022-11-19T09:52:20.421Z,8.20
2022-11-19T09:54:50.216Z,9.30
2022-11-19T09:57:24.357Z,8.83
2022-11-19T09:59:52.075Z,8.57
2022-11-19T10:02:20.520Z,8.87
2022-11-19T10:04:48.172Z,8.97
2022-11-19T10:07:27.257Z,8.73
2022-11-19T10:09:59.927Z,7.33
2022-11-19T10:12:43.561Z,9.03
2022-11-19T10:15:22.105Z,11.53
2022-11-19T10:18:29.171Z,8.83
2022-11-19T10:21:02.181Z,9.37
2022-11-19T10:24:01.128Z,9.20
2022-11-19T10:26:34.709Z,8.20
2022-11-19T10:29:02.269Z,10.90
2022-11-19T10:31:39.923Z,9.93
2022-11-19T10:34:12.507Z,8.37
2022-11-19T10:36:43.446Z,8.20
2022-11-19T10:39:18.626Z,8.40
2022-11-19T10:41:50.017Z,23.23
2022-11-19T10:44:40.413Z,11.90
2022-11-19T10:47:24.101Z,6.47
2022-11-19T10:49:55.508Z,5.10
2022-11-19T10:52:29.515Z,7.40
2022-11-19T10:55:04.105Z,3.03
2022-11-19T10:57:32.567Z,3.07
2022-11-19T11:00:00.795Z,5.73
2022-11-19T11:02:44.438Z,3.60
2022-11-19T11:05:14.029Z,4.47
2022-11-19T11:07:50.473Z,2.50
2022-11-19T11:10:34.716Z,4.47
2022-11-19T11:13:53.952Z,3.03
2022-11-19T11:16:26.666Z,3.47
2022-11-19T11:18:54.297Z,2.87
2022-11-19T11:21:34.555Z,2.90
2022-11-19T11:24:02.675Z,3.93
2022-11-19T11:26:29.983Z,2.70
2022-11-19T11:29:08.704Z,4.73
2022-11-19T11:31:38.415Z,2.37
2022-11-19T11:34:06.475Z,2.57
2022-11-19T11:36:35.667Z,3.30
2022-11-19T11:39:04.496Z,4.17
2022-11-19T11:42:04.876Z,2.70
2022-11-19T11:44:30.904Z,4.23
2022-11-19T11:47:01.048Z,3.53
2022-11-19T11:49:30.783Z,3.70
2022-11-19T11:52:09.684Z,4.07
2022-11-19T11:54:37.745Z,3.57
2022-11-19T11:57:24.614Z,3.80
2022-11-19T11:59:51.064Z,5.03
2022-11-19T12:02:26.824Z,3.77
2022-11-19T12:04:54.960Z,4.60
2022-11-19T12:07:58.271Z,5.43
2022-11-19T12:10:52.228Z,4.10
2022-11-19T12:13:33.947Z,3.23
2022-11-19T12:16:00.371Z,4.77
2022-11-19T12:18:45.671Z,2.77
2022-11-19T12:21:20.899Z,3.33
2022-11-19T12:24:12.118Z,5.17
2022-11-19T12:26:43.903Z,4.77
2022-11-19T12:29:13.497Z,3.37
2022-11-19T12:32:01.529Z,3.00
2022-11-19T12:34:36.953Z,3.40
2022-11-19T12:37:18.666Z,2.53
2022-11-19T12:40:03.770Z,4.13
2022-11-19T12:42:49.697Z,2.50
2022-11-19T12:45:37.013Z,6.13
2022-11-19T12:48:29.263Z,4.73
2022-11-19T12:51:03.195Z,5.77
2022-11-19T12:53:45.315Z,3.30
2022-11-19T12:56:31.935Z,6.53
2022-11-19T12:59:37.605Z,5.80
2022-11-19T13:02:17.322Z,5.40
2022-11-19T13:04:56.262Z,5.57
2022-11-19T13:07:31.102Z,4.23
2022-11-19T13:10:01.931Z,2.93
2022-11-19T13:12:37.042Z,3.77
2022-11-19T13:15:08.401Z,3.43
2022-11-19T13:17:38.487Z,4.90
2022-11-19T13:20:08.068Z,4.60
2022-11-19T13:22:41.183Z,4.93
2022-11-19T13:25:17.294Z,5.00
2022-11-19T13:27:45.098Z,5.63
2022-11-19T13:30:23.403Z,3.10
2022-11-19T13:33:02.937Z,8.07
2022-11-19T13:35:34.223Z,4.57
2022-11-19T13:38:12.299Z,4.80
2022-11-19T13:40:45.980Z,5.50
2022-11-19T13:43:34.516Z,6.17
2022-11-19T13:46:13.166Z,7.03
2022-11-19T13:48:46.318Z,6.07
2022-11-19T13:51:41.292Z,5.00
2022-11-19T13:54:08.534Z,5.00
2022-11-19T13:56:41.713Z,2.70
2022-11-19T13:59:08.557Z,3.70
2022-11-19T14:02:19.774Z,2.90
2022-11-19T14:05:19.623Z,5.60
2022-11-19T14:07:58.376Z,3.73
2022-11-19T14:10:30.677Z,7.77
2022-11-19T14:13:00.189Z,6.43
2022-11-19T14:16:15.932Z,4.53
2022-11-19T14:19:05.866Z,5.43
2022-11-19T14:21:53.853Z,3.80
2022-11-19T14:24:44.962Z,4.60
2022-11-19T14:27:33.766Z,5.63
2022-11-19T14:30:01.553Z,5.47
2022-11-19T14:32:29.867Z,5.03
2022-11-19T14:35:25.506Z,5.87
2022-11-19T14:37:54.783Z,5.87
2022-11-19T14:40:28.895Z,5.90
2022-11-19T14:43:19.934Z,4.90
2022-11-19T14:46:10.389Z,4.13
2022-11-19T14:48:39.911Z,3.93
2022-11-19T14:51:15.054Z,6.47
2022-11-19T14:54:03.550Z,4.27
2022-11-19T14:56:31.090Z,5.57
2022-11-19T14:59:05.586Z,5.30
2022-11-19T15:01:33.320Z,4.67
2022-11-19T15:04:02.988Z,4.80
2022-11-19T15:06:34.549Z,3.37
2022-11-19T15:09:02.144Z,5.00
2022-11-19T15:11:58.308Z,5.13
2022-11-19T15:15:01.095Z,3.50
2022-11-19T15:17:28.279Z,3.90
2022-11-19T15:20:38.833Z,4.70
2022-11-19T15:23:17.537Z,3.43
2022-11-19T15:26:02.375Z,3.77
2022-11-19T15:29:01.240Z,3.23
2022-11-19T15:32:05.633Z,4.07
2022-11-19T15:35:03.879Z,4.80
2022-11-19T15:37:43.191Z,5.27
2022-11-19T15:40:12.937Z,3.97
2022-11-19T15:42:57.106Z,4.50
2022-11-19T15:45:24.760Z,7.17
2022-11-19T15:48:02.725Z,8.27
2022-11-19T15:50:29.227Z,5.17
2022-11-19T15:53:00.294Z,4.90
2022-11-19T15:55:30.777Z,4.70
2022-11-19T15:58:11.075Z,3.90
2022-11-19T16:00:45.865Z,4.47
2022-11-19T16:03:12.532Z,5.43
2022-11-19T16:05:40.051Z,5.30
2022-11-19T16:08:09.154Z,5.67
2022-11-19T16:10:40.237Z,6.47
2022-11-19T16:13:43.112Z,6.33
2022-11-19T16:16:43.929Z,5.93
2022-11-19T16:19:13.928Z,7.07
2022-11-19T16:21:41.018Z,6.77
2022-11-19T16:24:32.169Z,7.27
2022-11-19T16:26:59.291Z,5.50
2022-11-19T16:29:26.470Z,4.20
2022-11-19T16:31:57.427Z,5.83
2022-11-19T16:34:25.761Z,6.77
2022-11-19T16:36:53.000Z,5.57
2022-11-19T16:39:23.524Z,7.63
2022-11-19T16:42:12.591Z,5.40
2022-11-19T16:44:42.904Z,6.43
2022-11-19T16:47:15.835Z,5.93
2022-11-19T16:49:48.280Z,5.80
2022-11-19T16:52:33.175Z,5.97
2022-11-19T16:55:00.451Z,3.93
2022-11-19T16:57:29.026Z,3.80
2022-11-19T17:00:23.684Z,5.10
2022-11-19T17:02:50.933Z,8.13
2022-11-19T17:05:20.408Z,8.13
2022-11-19T17:07:51.963Z,8.43
2022-11-19T17:10:26.798Z,9.63
2022-11-19T17:13:05.806Z,8.90
2022-11-19T17:15:48.108Z,7.60
2022-11-19T17:18:26.837Z,6.67
2022-11-19T17:20:56.118Z,9.27
2022-11-19T17:23:24.691Z,6.90
2022-11-19T17:25:53.868Z,10.77
2022-11-19T17:28:25.626Z,9.23
2022-11-19T17:30:52.223Z,6.53
2022-11-19T17:33:22.915Z,5.93
2022-11-19T17:35:49.522Z,7.33
2022-11-19T17:38:19.363Z,7.87
2022-11-19T17:40:53.932Z,12.90
2022-11-19T17:43:56.510Z,9.83
2022-11-19T17:46:25.083Z,4.93
2022-11-19T17:48:52.773Z,8.40
2022-11-19T17:51:23.315Z,4.60
2022-11-19T17:53:51.812Z,6.30
2022-11-19T17:56:20.582Z,9.17
2022-11-19T17:58:47.489Z,7.47
2022-11-19T18:01:15.362Z,9.33
2022-11-19T18:03:41.983Z,11.23
2022-11-19T18:06:11.491Z,6.77
2022-11-19T18:08:40.268Z,7.27
2022-11-19T18:11:06.802Z,6.03
2022-11-19T18:13:36.736Z,4.60
2022-11-19T18:16:14.010Z,5.00
2022-11-19T18:18:40.809Z,5.50
2022-11-19T18:21:12.950Z,6.40
2022-11-19T18:23:41.401Z,4.60
2022-11-19T18:26:12.669Z,5.57
2022-11-19T18:28:45.042Z,4.37
2022-11-19T18:31:26.838Z,5.23
2022-11-19T18:33:54.692Z,5.57
2022-11-19T18:36:26.378Z,6.13
2022-11-19T18:38:54.856Z,5.00
2022-11-19T18:41:21.761Z,4.53
2022-11-19T18:44:06.918Z,5.47
2022-11-19T18:46:33.429Z,7.67
2022-11-19T18:48:59.960Z,8.83
2022-11-19T18:51:27.679Z,10.13
2022-11-19T18:53:54.132Z,5.77
2022-11-19T18:56:26.928Z,4.90
2022-11-19T18:58:53.480Z,7.03
2022-11-19T19:01:24.184Z,6.77
2022-11-19T19:03:52.251Z,5.37
2022-11-19T19:06:18.842Z,5.37
2022-11-19T19:08:46.685Z,9.30
2022-11-19T19:11:31.841Z,6.03
2022-11-19T19:13:58.429Z,5.43
2022-11-19T19:16:25.062Z,4.80
2022-11-19T19:18:52.264Z,5.20
2022-11-19T19:21:20.686Z,4.53
2022-11-19T19:23:47.566Z,6.10
2022-11-19T19:26:16.179Z,8.57
2022-11-19T19:28:43.434Z,5.03
2022-11-19T19:31:14.962Z,6.87
2022-11-19T19:33:46.279Z,5.97
2022-11-19T19:36:13.274Z,5.80
2022-11-19T19:38:42.894Z,5.77
2022-11-19T19:41:17.261Z,8.07
2022-11-19T19:43:43.996Z,5.63
2022-11-19T19:46:18.411Z,4.83
2022-11-19T19:48:47.016Z,4.93
2022-11-19T19:51:14.628Z,4.97
2022-11-19T19:53:41.945Z,4.20
2022-11-19T19:56:21.274Z,4.60
2022-11-19T19:58:50.736Z,3.90
2022-11-19T20:01:18.406Z,4.20
2022-11-19T20:03:44.999Z,5.43
2022-11-19T20:06:13.591Z,5.57
2022-11-19T20:08:41.082Z,3.73
2022-11-19T20:11:12.795Z,4.80
2022-11-19T20:13:40.158Z,6.20
2022-11-19T20:16:13.127Z,4.57
2022-11-19T20:18:43.126Z,4.73
2022-11-19T20:21:11.626Z,4.73
2022-11-19T20:23:38.916Z,5.00
2022-11-19T20:26:07.883Z,7.03
2022-11-19T20:28:34.584Z,6.33
2022-11-19T20:31:12.909Z,5.57
2022-11-19T20:33:40.766Z,5.20
2022-11-19T20:36:08.982Z,4.27
2022-11-19T20:38:37.707Z,5.50
2022-11-19T20:41:07.001Z,4.70
2022-11-19T20:43:53.409Z,4.57
2022-11-19T20:46:22.473Z,4.53
2022-11-19T20:48:50.678Z,9.33
2022-11-19T20:51:21.213Z,8.93
2022-11-19T20:53:48.121Z,7.43
2022-11-19T20:56:14.839Z,5.73
2022-11-19T20:58:41.366Z,6.97
2022-11-19T21:01:12.888Z,5.90
2022-11-19T21:03:39.551Z,5.87
2022-11-19T21:06:07.603Z,5.63
2022-11-19T21:08:35.758Z,6.83
2022-11-19T21:11:05.223Z,5.27
2022-11-19T21:13:32.057Z,4.53
2022-11-19T21:15:59.427Z,4.43
2022-11-19T21:18:26.466Z,4.60
2022-11-19T21:20:52.986Z,6.43
2022-11-19T21:23:20.387Z,6.00
2022-11-19T21:25:46.846Z,5.23
2022-11-19T21:28:14.216Z,5.17
2022-11-19T21:30:40.954Z,5.17
2022-11-19T21:33:07.402Z,5.60
2022-11-19T21:35:33.900Z,4.97
2022-11-19T21:38:00.413Z,4.80
2022-11-19T21:40:26.871Z,4.57
2022-11-19T21:42:53.553Z,6.50
2022-11-19T21:45:20.030Z,6.00
2022-11-19T21:47:46.608Z,5.27
2022-11-19T21:50:13.171Z,6.40
2022-11-19T21:52:39.612Z,6.70
2022-11-19T21:55:06.258Z,11.03
2022-11-19T21:57:32.771Z,18.47
2022-11-19T21:59:59.252Z,11.17
2022-11-19T22:02:25.803Z,12.50
2022-11-19T22:04:52.289Z,9.03
2022-11-19T22:07:18.736Z,6.10
2022-11-19T22:09:45.293Z,5.87
2022-11-19T22:12:11.719Z,5.60
2022-11-19T22:14:38.365Z,8.20
2022-11-19T22:17:04.932Z,8.93
2022-11-19T22:19:31.489Z,10.13
2022-11-19T22:21:58.038Z,7.30
2022-11-19T22:24:24.495Z,5.60
2022-11-19T22:26:51.019Z,6.47
2022-11-19T22:29:17.565Z,5.40
2022-11-19T22:31:44.170Z,5.77
2022-11-19T22:34:11.736Z,4.80
2022-11-19T22:36:38.287Z,6.93
2022-11-19T22:39:05.154Z,4.03
2022-11-19T22:41:31.729Z,4.63
2022-11-19T22:43:58.671Z,5.90
2022-11-19T22:46:25.170Z,5.43
2022-11-19T22:48:51.661Z,9.47
2022-11-19T22:51:23.017Z,4.93
2022-11-19T22:53:50.603Z,5.77
2022-11-19T22:56:22.465Z,6.07
2022-11-19T22:58:50.370Z,4.90
2022-11-19T23:01:30.965Z,6.20
2022-11-19T23:03:59.058Z,7.13
2022-11-19T23:06:25.691Z,5.57
2022-11-19T23:08:52.598Z,5.33
2022-11-19T23:11:40.336Z,5.10
2022-11-19T23:14:12.247Z,5.10
2022-11-19T23:16:39.098Z,6.17
2022-11-19T23:19:06.029Z,4.70
2022-11-19T23:21:32.523Z,5.77
2022-11-19T23:24:02.362Z,6.93
2022-11-19T23:26:30.449Z,4.23
2022-11-19T23:28:57.464Z,7.37
2022-11-19T23:31:26.396Z,4.50
2022-11-19T23:33:58.758Z,5.07
2022-11-19T23:36:31.078Z,6.43
2022-11-19T23:38:57.871Z,4.27
2022-11-19T23:41:24.689Z,7.57
2022-11-19T23:43:53.343Z,5.23
2022-11-19T23:46:25.073Z,6.17
2022-11-19T23:48:51.798Z,5.63
2022-11-19T23:51:21.245Z,7.37
2022-11-19T23:53:48.174Z,5.70
2022-11-19T23:56:15.774Z,6.07
2022-11-19T23:58:42.979Z,4.87
